Terminal Aerodrome Forecast
Issued by NWS

Home | Current Version | Previous Version | Text Only | Print | Product List | Glossary On
Versions: 1 2 3 4 5 6 7 8 9 10 11 12 13 14 15 16 17 18 19 20 21 22 23 24 25 26 27 28 29 30 31
000
FTUS44 KHGX 300127 AAA
TAFCXO
TAF AMD
KCXO 300127Z 3001/3024 17014KT P6SM VCSH OVC035
     FM300600 16011KT 5SM BR VCTS SCT015 BKN025CB
      TEMPO 3008/3012 -TSRA BKN015CB
     FM301200 17005KT 5SM -TSRA BR SCT010 BKN020CB
     FM301800 15006KT P6SM VCTS SCT025 BKN035CB=

USA.gov is the U.S. government's official web portal to all federal, state and local government web resources and services.